Norwood, Minnesota
Current Conditions -  °F | °C
As of 4:34 PM on Friday 31 Oct 2014 (Local Time) from KGYL Reporting Station
Clear Clear  
Wind Chill: 40°   Ceiling: Unl
Heat Index: 40°   Visibility: 10mi
Dew Point: 17°   Wind: 3mph
Humidity: 40%   Direction: 50°NE
Pressure: 30.49"   Gusts: NA
Location:  44.77°N, 93.93°W
Report Text: KGYL 312134Z AUTO 05003KT 10SM CLR 04/M08 A3049 RMK AO2 T00421083
Loading
Personal Weather Stations






























Interactive Weather Map
Tropical Storm Tracking
New forecast layout! Learn more

10-Day Weather Forecast

Advertisements
Track Severe Weather on mobile